sensor_id;sensor_type;location;lat;lon;timestamp;pressure;altitude;pressure_sealevel;temperature;humidity
34500;BME280;20745;50.882;6.962;2022-11-20T00:00:15;100607.75;;;5.43;100.00
34500;BME280;20745;50.882;6.962;2022-11-20T00:02:41;100617.16;;;5.47;100.00
34500;BME280;20745;50.882;6.962;2022-11-20T00:05:07;100613.94;;;5.44;100.00
34500;BME280;20745;50.882;6.962;2022-11-20T00:07:34;100611.88;;;5.55;100.00
34500;BME280;20745;50.882;6.962;2022-11-20T00:10:00;100619.75;;;5.57;100.00
34500;BME280;20745;50.882;6.962;2022-11-20T00:12:28;100614.94;;;5.60;100.00
34500;BME280;20745;50.882;6.962;2022-11-20T00:14:54;100612.28;;;5.60;100.00
34500;BME280;20745;50.882;6.962;2022-11-20T00:17:20;100603.06;;;5.63;100.00
34500;BME280;20745;50.882;6.962;2022-11-20T00:19:46;100609.03;;;5.57;100.00
34500;BME280;20745;50.882;6.962;2022-11-20T00:22:13;100608.44;;;5.63;100.00
34500;BME280;20745;50.882;6.962;2022-11-20T00:24:40;100617.63;;;5.60;100.00
34500;BME280;20745;50.882;6.962;2022-11-20T00:27:08;100616.38;;;5.55;100.00
34500;BME280;20745;50.882;6.962;2022-11-20T00:29:34;100609.97;;;5.65;100.00
34500;BME280;20745;50.882;6.962;2022-11-20T00:32:01;100621.38;;;5.67;100.00
34500;BME280;20745;50.882;6.962;2022-11-20T00:34:27;100612.03;;;5.71;100.00
34500;BME280;20745;50.882;6.962;2022-11-20T00:36:53;100612.75;;;5.73;100.00
34500;BME280;20745;50.882;6.962;2022-11-20T00:39:20;100602.69;;;5.75;100.00
34500;BME280;20745;50.882;6.962;2022-11-20T00:41:47;100603.94;;;5.63;100.00
34500;BME280;20745;50.882;6.962;2022-11-20T00:44:13;100598.88;;;5.60;100.00
34500;BME280;20745;50.882;6.962;2022-11-20T00:46:39;100597.16;;;5.59;100.00
34500;BME280;20745;50.882;6.962;2022-11-20T00:49:06;100593.72;;;5.49;100.00
34500;BME280;20745;50.882;6.962;2022-11-20T00:51:32;100597.81;;;5.53;100.00
34500;BME280;20745;50.882;6.962;2022-11-20T00:53:58;100592.13;;;5.56;100.00
34500;BME280;20745;50.882;6.962;2022-11-20T00:56:26;100590.91;;;5.51;100.00
34500;BME280;20745;50.882;6.962;2022-11-20T00:58:52;100598.63;;;5.54;100.00
34500;BME280;20745;50.882;6.962;2022-11-20T01:01:20;100598.94;;;5.51;100.00
34500;BME280;20745;50.882;6.962;2022-11-20T01:03:47;100609.91;;;5.57;100.00
34500;BME280;20745;50.882;6.962;2022-11-20T01:06:16;100605.91;;;5.61;100.00
34500;BME280;20745;50.882;6.962;2022-11-20T01:08:43;100611.56;;;5.58;100.00
34500;BME280;20745;50.882;6.962;2022-11-20T01:11:17;100609.66;;;5.33;100.00
34500;BME280;20745;50.882;6.962;2022-11-20T01:13:44;100615.78;;;5.43;100.00
34500;BME280;20745;50.882;6.962;2022-11-20T01:16:12;100607.22;;;5.57;100.00
34500;BME280;20745;50.882;6.962;2022-11-20T01:18:39;100602.84;;;5.56;100.00
34500;BME280;20745;50.882;6.962;2022-11-20T01:21:07;100606.50;;;5.55;100.00
34500;BME280;20745;50.882;6.962;2022-11-20T01:23:35;100610.41;;;5.61;100.00
34500;BME280;20745;50.882;6.962;2022-11-20T01:26:03;100607.88;;;5.59;100.00
34500;BME280;20745;50.882;6.962;2022-11-20T01:28:30;100605.59;;;5.64;100.00
34500;BME280;20745;50.882;6.962;2022-11-20T01:30:57;100607.97;;;5.67;100.00
34500;BME280;20745;50.882;6.962;2022-11-20T01:33:24;100602.31;;;5.70;100.00
34500;BME280;20745;50.882;6.962;2022-11-20T01:35:50;100603.59;;;5.66;100.00
34500;BME280;20745;50.882;6.962;2022-11-20T01:38:16;100599.69;;;5.61;100.00
34500;BME280;20745;50.882;6.962;2022-11-20T01:40:43;100601.94;;;5.65;100.00
34500;BME280;20745;50.882;6.962;2022-11-20T01:43:14;100594.03;;;5.64;100.00
34500;BME280;20745;50.882;6.962;2022-11-20T01:48:19;100588.16;;;5.60;100.00
34500;BME280;20745;50.882;6.962;2022-11-20T01:50:47;100590.91;;;5.68;100.00
34500;BME280;20745;50.882;6.962;2022-11-20T01:53:14;100585.84;;;5.65;100.00
34500;BME280;20745;50.882;6.962;2022-11-20T01:55:51;100573.97;;;5.68;100.00
34500;BME280;20745;50.882;6.962;2022-11-20T01:58:19;100565.72;;;5.61;100.00
34500;BME280;20745;50.882;6.962;2022-11-20T02:00:48;100563.34;;;5.58;100.00
34500;BME280;20745;50.882;6.962;2022-11-20T02:03:15;100567.63;;;5.51;100.00
34500;BME280;20745;50.882;6.962;2022-11-20T02:06:17;100570.78;;;5.47;100.00
34500;BME280;20745;50.882;6.962;2022-11-20T02:08:35;100566.88;;;5.41;100.00
34500;BME280;20745;50.882;6.962;2022-11-20T02:11:02;100556.41;;;5.30;100.00
34500;BME280;20745;50.882;6.962;2022-11-20T02:13:29;100555.13;;;5.25;100.00
34500;BME280;20745;50.882;6.962;2022-11-20T02:18:43;100559.72;;;5.14;100.00
34500;BME280;20745;50.882;6.962;2022-11-20T02:26:18;100574.19;;;5.39;100.00
34500;BME280;20745;50.882;6.962;2022-11-20T02:28:46;100572.94;;;5.43;100.00
34500;BME280;20745;50.882;6.962;2022-11-20T02:31:13;100571.63;;;5.47;100.00
34500;BME280;20745;50.882;6.962;2022-11-20T02:33:39;100571.31;;;5.50;100.00
34500;BME280;20745;50.882;6.962;2022-11-20T02:36:07;100576.69;;;5.50;100.00
34500;BME280;20745;50.882;6.962;2022-11-20T02:38:35;100565.13;;;5.50;100.00
34500;BME280;20745;50.882;6.962;2022-11-20T02:41:01;100568.66;;;5.50;100.00
34500;BME280;20745;50.882;6.962;2022-11-20T02:43:28;100558.44;;;5.54;100.00
34500;BME280;20745;50.882;6.962;2022-11-20T02:45:54;100552.88;;;5.47;100.00
34500;BME280;20745;50.882;6.962;2022-11-20T02:48:20;100547.81;;;5.44;100.00
34500;BME280;20745;50.882;6.962;2022-11-20T02:50:50;100552.72;;;5.49;100.00
34500;BME280;20745;50.882;6.962;2022-11-20T02:53:16;100549.19;;;5.48;100.00
34500;BME280;20745;50.882;6.962;2022-11-20T02:55:43;100547.81;;;5.44;100.00
34500;BME280;20745;50.882;6.962;2022-11-20T02:58:11;100549.03;;;5.50;100.00
34500;BME280;20745;50.882;6.962;2022-11-20T03:00:37;100555.56;;;5.47;100.00
34500;BME280;20745;50.882;6.962;2022-11-20T03:03:04;100552.09;;;5.55;100.00
34500;BME280;20745;50.882;6.962;2022-11-20T03:05:30;100553.84;;;5.46;100.00
34500;BME280;20745;50.882;6.962;2022-11-20T03:07:56;100543.47;;;5.43;100.00
34500;BME280;20745;50.882;6.962;2022-11-20T03:10:23;100540.16;;;5.49;100.00
34500;BME280;20745;50.882;6.962;2022-11-20T03:12:53;100543.69;;;5.50;100.00
34500;BME280;20745;50.882;6.962;2022-11-20T03:15:21;100542.22;;;5.55;100.00
34500;BME280;20745;50.882;6.962;2022-11-20T03:17:47;100547.28;;;5.58;100.00
34500;BME280;20745;50.882;6.962;2022-11-20T03:20:14;100544.75;;;5.57;100.00
34500;BME280;20745;50.882;6.962;2022-11-20T03:22:40;100545.34;;;5.51;100.00
34500;BME280;20745;50.882;6.962;2022-11-20T03:25:07;100537.72;;;5.56;100.00
34500;BME280;20745;50.882;6.962;2022-11-20T03:27:33;100524.09;;;5.49;100.00
34500;BME280;20745;50.882;6.962;2022-11-20T03:30:00;100530.13;;;5.69;100.00
34500;BME280;20745;50.882;6.962;2022-11-20T03:32:27;100540.25;;;5.57;100.00
34500;BME280;20745;50.882;6.962;2022-11-20T03:34:53;100533.72;;;5.60;100.00
34500;BME280;20745;50.882;6.962;2022-11-20T03:37:19;100535.56;;;5.59;100.00
34500;BME280;20745;50.882;6.962;2022-11-20T03:39:46;100535.34;;;5.53;100.00
34500;BME280;20745;50.882;6.962;2022-11-20T03:42:12;100530.44;;;5.48;100.00
34500;BME280;20745;50.882;6.962;2022-11-20T03:44:57;100533.19;;;5.56;100.00
34500;BME280;20745;50.882;6.962;2022-11-20T03:47:23;100541.75;;;5.60;100.00
34500;BME280;20745;50.882;6.962;2022-11-20T03:49:50;100530.03;;;5.61;100.00
34500;BME280;20745;50.882;6.962;2022-11-20T03:52:16;100525.53;;;5.61;100.00
34500;BME280;20745;50.882;6.962;2022-11-20T03:54:42;100524.84;;;5.59;100.00
34500;BME280;20745;50.882;6.962;2022-11-20T03:57:09;100522.16;;;5.59;100.00
34500;BME280;20745;50.882;6.962;2022-11-20T03:59:35;100519.88;;;5.64;100.00
34500;BME280;20745;50.882;6.962;2022-11-20T04:02:01;100518.50;;;5.60;100.00
34500;BME280;20745;50.882;6.962;2022-11-20T04:04:28;100515.13;;;5.58;100.00
34500;BME280;20745;50.882;6.962;2022-11-20T04:06:54;100513.75;;;5.54;100.00
34500;BME280;20745;50.882;6.962;2022-11-20T04:09:20;100510.06;;;5.55;100.00
34500;BME280;20745;50.882;6.962;2022-11-20T04:11:47;100513.50;;;5.65;100.00
34500;BME280;20745;50.882;6.962;2022-11-20T04:14:14;100515.53;;;5.63;100.00
34500;BME280;20745;50.882;6.962;2022-11-20T04:16:41;100512.34;;;5.68;100.00
34500;BME280;20745;50.882;6.962;2022-11-20T04:19:11;100511.88;;;5.72;100.00
34500;BME280;20745;50.882;6.962;2022-11-20T04:21:37;100503.03;;;5.72;100.00
34500;BME280;20745;50.882;6.962;2022-11-20T04:24:04;100507.31;;;5.65;100.00
34500;BME280;20745;50.882;6.962;2022-11-20T04:26:30;100507.16;;;5.66;100.00
34500;BME280;20745;50.882;6.962;2022-11-20T04:28:57;100504.31;;;5.68;100.00
34500;BME280;20745;50.882;6.962;2022-11-20T04:31:25;100503.25;;;5.61;100.00
34500;BME280;20745;50.882;6.962;2022-11-20T04:33:52;100513.16;;;5.60;100.00
34500;BME280;20745;50.882;6.962;2022-11-20T04:36:23;100513.16;;;5.60;100.00
34500;BME280;20745;50.882;6.962;2022-11-20T04:38:58;100511.53;;;5.67;100.00
34500;BME280;20745;50.882;6.962;2022-11-20T04:41:26;100512.50;;;5.66;100.00
34500;BME280;20745;50.882;6.962;2022-11-20T04:43:53;100501.13;;;5.64;100.00
34500;BME280;20745;50.882;6.962;2022-11-20T04:46:25;100505.72;;;5.54;100.00
34500;BME280;20745;50.882;6.962;2022-11-20T04:48:52;100503.34;;;5.51;100.00
34500;BME280;20745;50.882;6.962;2022-11-20T04:51:18;100508.72;;;5.51;100.00
34500;BME280;20745;50.882;6.962;2022-11-20T04:53:45;100507.72;;;5.35;100.00
34500;BME280;20745;50.882;6.962;2022-11-20T04:56:12;100515.97;;;5.24;100.00
34500;BME280;20745;50.882;6.962;2022-11-20T04:58:38;100519.88;;;5.29;100.00
34500;BME280;20745;50.882;6.962;2022-11-20T05:01:09;100522.50;;;5.21;100.00
34500;BME280;20745;50.882;6.962;2022-11-20T05:03:36;100525.63;;;5.34;100.00
34500;BME280;20745;50.882;6.962;2022-11-20T05:06:08;100526.00;;;5.39;100.00
34500;BME280;20745;50.882;6.962;2022-11-20T05:08:34;100519.38;;;5.43;100.00
34500;BME280;20745;50.882;6.962;2022-11-20T05:11:02;100531.13;;;5.33;100.00
34500;BME280;20745;50.882;6.962;2022-11-20T05:13:28;100528.84;;;5.38;100.00
34500;BME280;20745;50.882;6.962;2022-11-20T05:15:55;100527.41;;;5.26;100.00
34500;BME280;20745;50.882;6.962;2022-11-20T05:18:21;100520.59;;;5.31;100.00
34500;BME280;20745;50.882;6.962;2022-11-20T05:20:54;100520.28;;;5.34;100.00
34500;BME280;20745;50.882;6.962;2022-11-20T05:23:20;100522.25;;;5.32;100.00
34500;BME280;20745;50.882;6.962;2022-11-20T05:25:47;100522.09;;;5.34;100.00
34500;BME280;20745;50.882;6.962;2022-11-20T05:28:13;100523.88;;;5.25;100.00
34500;BME280;20745;50.882;6.962;2022-11-20T05:30:40;100516.38;;;5.11;100.00
34500;BME280;20745;50.882;6.962;2022-11-20T05:33:07;100521.94;;;5.18;100.00
34500;BME280;20745;50.882;6.962;2022-11-20T05:35:33;100516.59;;;5.18;100.00
34500;BME280;20745;50.882;6.962;2022-11-20T05:38:00;100522.78;;;5.18;100.00
34500;BME280;20745;50.882;6.962;2022-11-20T05:40:26;100523.56;;;5.28;100.00
34500;BME280;20745;50.882;6.962;2022-11-20T05:42:52;100532.00;;;5.33;100.00
34500;BME280;20745;50.882;6.962;2022-11-20T05:45:19;100527.72;;;5.40;100.00
34500;BME280;20745;50.882;6.962;2022-11-20T05:47:45;100525.25;;;5.47;100.00
34500;BME280;20745;50.882;6.962;2022-11-20T05:50:12;100519.97;;;5.37;100.00
34500;BME280;20745;50.882;6.962;2022-11-20T05:52:38;100521.03;;;5.44;100.00
34500;BME280;20745;50.882;6.962;2022-11-20T05:55:04;100523.78;;;5.52;100.00
34500;BME280;20745;50.882;6.962;2022-11-20T05:57:31;100518.81;;;5.57;100.00
34500;BME280;20745;50.882;6.962;2022-11-20T05:59:57;100514.47;;;5.39;100.00
34500;BME280;20745;50.882;6.962;2022-11-20T06:02:24;100515.69;;;5.44;100.00
34500;BME280;20745;50.882;6.962;2022-11-20T06:04:50;100516.06;;;5.49;100.00
34500;BME280;20745;50.882;6.962;2022-11-20T06:07:17;100523.25;;;5.49;100.00
34500;BME280;20745;50.882;6.962;2022-11-20T06:09:43;100520.19;;;5.61;100.00
34500;BME280;20745;50.882;6.962;2022-11-20T06:12:10;100524.38;;;5.64;100.00
34500;BME280;20745;50.882;6.962;2022-11-20T06:14:36;100514.53;;;5.64;100.00
34500;BME280;20745;50.882;6.962;2022-11-20T06:17:02;100521.03;;;5.62;100.00
34500;BME280;20745;50.882;6.962;2022-11-20T06:19:29;100506.63;;;5.63;100.00
34500;BME280;20745;50.882;6.962;2022-11-20T06:21:55;100518.19;;;5.63;100.00
34500;BME280;20745;50.882;6.962;2022-11-20T06:24:21;100510.53;;;5.68;100.00
34500;BME280;20745;50.882;6.962;2022-11-20T06:26:48;100510.84;;;5.65;100.00
34500;BME280;20745;50.882;6.962;2022-11-20T06:29:15;100509.63;;;5.60;100.00
34500;BME280;20745;50.882;6.962;2022-11-20T06:31:41;100510.84;;;5.65;100.00
34500;BME280;20745;50.882;6.962;2022-11-20T06:34:08;100515.72;;;5.70;100.00
34500;BME280;20745;50.882;6.962;2022-11-20T06:36:35;100514.06;;;5.69;100.00
34500;BME280;20745;50.882;6.962;2022-11-20T06:39:03;100517.09;;;5.74;100.00
34500;BME280;20745;50.882;6.962;2022-11-20T06:41:29;100521.78;;;5.72;100.00
34500;BME280;20745;50.882;6.962;2022-11-20T06:43:56;100522.31;;;5.75;100.00
34500;BME280;20745;50.882;6.962;2022-11-20T06:46:22;100518.97;;;5.73;100.00
34500;BME280;20745;50.882;6.962;2022-11-20T06:48:48;100531.03;;;5.77;100.00
34500;BME280;20745;50.882;6.962;2022-11-20T06:51:15;100533.47;;;5.71;100.00
34500;BME280;20745;50.882;6.962;2022-11-20T06:53:42;100539.38;;;5.74;100.00
34500;BME280;20745;50.882;6.962;2022-11-20T06:56:08;100531.34;;;5.74;100.00
34500;BME280;20745;50.882;6.962;2022-11-20T06:58:35;100529.66;;;5.73;100.00
34500;BME280;20745;50.882;6.962;2022-11-20T07:01:03;100524.31;;;5.73;100.00
34500;BME280;20745;50.882;6.962;2022-11-20T07:03:30;100538.69;;;5.72;100.00
34500;BME280;20745;50.882;6.962;2022-11-20T07:05:57;100542.88;;;5.75;100.00
34500;BME280;20745;50.882;6.962;2022-11-20T07:08:24;100544.81;;;5.82;100.00
34500;BME280;20745;50.882;6.962;2022-11-20T07:10:50;100544.00;;;5.82;100.00
34500;BME280;20745;50.882;6.962;2022-11-20T07:13:17;100542.44;;;5.79;100.00
34500;BME280;20745;50.882;6.962;2022-11-20T07:15:43;100544.66;;;5.84;100.00
34500;BME280;20745;50.882;6.962;2022-11-20T07:18:09;100549.22;;;5.83;100.00
34500;BME280;20745;50.882;6.962;2022-11-20T07:20:36;100551.19;;;5.81;100.00
34500;BME280;20745;50.882;6.962;2022-11-20T07:23:02;100558.34;;;5.81;100.00
34500;BME280;20745;50.882;6.962;2022-11-20T07:25:29;100557.78;;;5.87;100.00
34500;BME280;20745;50.882;6.962;2022-11-20T07:27:57;100554.78;;;5.90;100.00
34500;BME280;20745;50.882;6.962;2022-11-20T07:30:23;100560.13;;;5.90;100.00
34500;BME280;20745;50.882;6.962;2022-11-20T07:32:53;100554.00;;;5.97;100.00
34500;BME280;20745;50.882;6.962;2022-11-20T07:35:20;100557.16;;;5.93;100.00
34500;BME280;20745;50.882;6.962;2022-11-20T07:37:46;100555.84;;;5.97;100.00
34500;BME280;20745;50.882;6.962;2022-11-20T07:40:13;100557.66;;;5.96;100.00
34500;BME280;20745;50.882;6.962;2022-11-20T07:42:46;100569.03;;;5.90;100.00
34500;BME280;20745;50.882;6.962;2022-11-20T07:45:13;100555.84;;;5.97;100.00
34500;BME280;20745;50.882;6.962;2022-11-20T07:47:39;100556.28;;;5.92;100.00
34500;BME280;20745;50.882;6.962;2022-11-20T07:50:06;100554.94;;;5.88;100.00
34500;BME280;20745;50.882;6.962;2022-11-20T07:52:33;100555.69;;;5.98;100.00
34500;BME280;20745;50.882;6.962;2022-11-20T07:55:00;100548.97;;;5.94;100.00
34500;BME280;20745;50.882;6.962;2022-11-20T07:57:26;100553.69;;;6.00;100.00
34500;BME280;20745;50.882;6.962;2022-11-20T07:59:53;100555.41;;;6.09;100.00
34500;BME280;20745;50.882;6.962;2022-11-20T08:02:20;100562.31;;;6.12;100.00
34500;BME280;20745;50.882;6.962;2022-11-20T08:04:46;100554.78;;;6.15;100.00
34500;BME280;20745;50.882;6.962;2022-11-20T08:07:13;100553.28;;;6.13;100.00
34500;BME280;20745;50.882;6.962;2022-11-20T08:09:39;100557.91;;;6.03;100.00
34500;BME280;20745;50.882;6.962;2022-11-20T08:12:05;100555.50;;;6.17;100.00
34500;BME280;20745;50.882;6.962;2022-11-20T08:14:51;100551.06;;;6.08;100.00
34500;BME280;20745;50.882;6.962;2022-11-20T08:17:17;100545.75;;;6.16;100.00
34500;BME280;20745;50.882;6.962;2022-11-20T08:19:44;100549.28;;;6.17;100.00
34500;BME280;20745;50.882;6.962;2022-11-20T08:22:11;100542.13;;;6.25;100.00
34500;BME280;20745;50.882;6.962;2022-11-20T08:24:37;100550.72;;;6.29;100.00
34500;BME280;20745;50.882;6.962;2022-11-20T08:27:03;100545.91;;;6.40;100.00
34500;BME280;20745;50.882;6.962;2022-11-20T08:29:30;100548.59;;;6.40;100.00
34500;BME280;20745;50.882;6.962;2022-11-20T08:31:56;100556.00;;;6.46;100.00
34500;BME280;20745;50.882;6.962;2022-11-20T08:34:22;100553.97;;;6.40;100.00
34500;BME280;20745;50.882;6.962;2022-11-20T08:36:49;100557.47;;;6.41;100.00
34500;BME280;20745;50.882;6.962;2022-11-20T08:39:15;100554.69;;;6.50;100.00
34500;BME280;20745;50.882;6.962;2022-11-20T08:41:42;100554.13;;;6.39;100.00
34500;BME280;20745;50.882;6.962;2022-11-20T08:44:08;100558.47;;;6.40;100.00
34500;BME280;20745;50.882;6.962;2022-11-20T08:46:36;100551.78;;;6.44;100.00
34500;BME280;20745;50.882;6.962;2022-11-20T08:49:09;100552.47;;;6.46;100.00
34500;BME280;20745;50.882;6.962;2022-11-20T08:51:37;100554.25;;;6.63;100.00
34500;BME280;20745;50.882;6.962;2022-11-20T08:54:05;100554.72;;;6.58;100.00
34500;BME280;20745;50.882;6.962;2022-11-20T08:56:32;100557.06;;;6.53;100.00
34500;BME280;20745;50.882;6.962;2022-11-20T08:58:58;100554.78;;;6.66;100.00
34500;BME280;20745;50.882;6.962;2022-11-20T09:01:47;100550.72;;;6.62;100.00
34500;BME280;20745;50.882;6.962;2022-11-20T09:04:14;100554.81;;;6.74;100.00
34500;BME280;20745;50.882;6.962;2022-11-20T09:06:40;100556.00;;;6.88;100.00
34500;BME280;20745;50.882;6.962;2022-11-20T09:09:07;100564.44;;;6.93;100.00
34500;BME280;20745;50.882;6.962;2022-11-20T09:11:34;100564.28;;;6.94;100.00
34500;BME280;20745;50.882;6.962;2022-11-20T09:14:01;100557.09;;;7.03;100.00
34500;BME280;20745;50.882;6.962;2022-11-20T09:16:29;100544.78;;;6.84;100.00
34500;BME280;20745;50.882;6.962;2022-11-20T09:18:55;100534.91;;;6.85;100.00
34500;BME280;20745;50.882;6.962;2022-11-20T09:21:41;100538.38;;;6.77;100.00
34500;BME280;20745;50.882;6.962;2022-11-20T09:24:08;100535.81;;;6.68;100.00
34500;BME280;20745;50.882;6.962;2022-11-20T09:26:34;100536.19;;;6.73;100.00
34500;BME280;20745;50.882;6.962;2022-11-20T09:29:00;100540.06;;;6.78;100.00
34500;BME280;20745;50.882;6.962;2022-11-20T09:31:27;100533.00;;;6.77;100.00
34500;BME280;20745;50.882;6.962;2022-11-20T09:33:53;100524.25;;;6.75;100.00
34500;BME280;20745;50.882;6.962;2022-11-20T09:36:19;100527.31;;;6.80;100.00
34500;BME280;20745;50.882;6.962;2022-11-20T09:38:46;100527.50;;;6.87;100.00
34500;BME280;20745;50.882;6.962;2022-11-20T09:49:15;100534.31;;;7.15;100.00
34500;BME280;20745;50.882;6.962;2022-11-20T09:51:53;100521.38;;;7.10;100.00
34500;BME280;20745;50.882;6.962;2022-11-20T09:54:26;100531.25;;;7.02;100.00
34500;BME280;20745;50.882;6.962;2022-11-20T09:57:01;100529.38;;;7.02;100.00
34500;BME280;20745;50.882;6.962;2022-11-20T09:59:32;100531.69;;;6.89;100.00
34500;BME280;20745;50.882;6.962;2022-11-20T10:02:00;100539.09;;;6.87;100.00
34500;BME280;20745;50.882;6.962;2022-11-20T10:04:27;100529.69;;;6.91;100.00
34500;BME280;20745;50.882;6.962;2022-11-20T10:06:57;100535.25;;;6.98;100.00
34500;BME280;20745;50.882;6.962;2022-11-20T10:09:50;100532.75;;;7.04;100.00
34500;BME280;20745;50.882;6.962;2022-11-20T10:12:45;100527.91;;;7.08;100.00
34500;BME280;20745;50.882;6.962;2022-11-20T10:15:21;100534.28;;;7.07;100.00
34500;BME280;20745;50.882;6.962;2022-11-20T10:25:38;100512.84;;;7.23;100.00
34500;BME280;20745;50.882;6.962;2022-11-20T10:31:00;100487.50;;;7.41;100.00
34500;BME280;20745;50.882;6.962;2022-11-20T10:33:27;100480.81;;;7.53;100.00
34500;BME280;20745;50.882;6.962;2022-11-20T10:36:20;100478.25;;;7.44;100.00
34500;BME280;20745;50.882;6.962;2022-11-20T10:38:54;100470.53;;;7.41;100.00
34500;BME280;20745;50.882;6.962;2022-11-20T10:41:24;100473.38;;;7.31;100.00
34500;BME280;20745;50.882;6.962;2022-11-20T10:43:54;100465.00;;;7.26;100.00
34500;BME280;20745;50.882;6.962;2022-11-20T10:46:23;100469.00;;;7.14;100.00
34500;BME280;20745;50.882;6.962;2022-11-20T10:48:51;100472.03;;;7.19;100.00
34500;BME280;20745;50.882;6.962;2022-11-20T10:56:33;100459.47;;;7.28;100.00
34500;BME280;20745;50.882;6.962;2022-11-20T11:01:26;100451.88;;;7.15;100.00
34500;BME280;20745;50.882;6.962;2022-11-20T11:03:54;100446.69;;;7.22;100.00
34500;BME280;20745;50.882;6.962;2022-11-20T11:06:27;100440.66;;;7.28;100.00
34500;BME280;20745;50.882;6.962;2022-11-20T11:08:56;100436.13;;;7.28;100.00
34500;BME280;20745;50.882;6.962;2022-11-20T11:11:29;100430.75;;;7.28;100.00
34500;BME280;20745;50.882;6.962;2022-11-20T11:14:06;100421.34;;;7.32;100.00
34500;BME280;20745;50.882;6.962;2022-11-20T11:16:32;100424.72;;;7.34;100.00
34500;BME280;20745;50.882;6.962;2022-11-20T11:19:06;100415.28;;;7.22;100.00
34500;BME280;20745;50.882;6.962;2022-11-20T11:21:32;100415.66;;;7.27;100.00
34500;BME280;20745;50.882;6.962;2022-11-20T11:23:59;100407.41;;;7.45;100.00
34500;BME280;20745;50.882;6.962;2022-11-20T11:29:19;100409.56;;;7.66;100.00
34500;BME280;20745;50.882;6.962;2022-11-20T11:31:46;100398.97;;;7.72;100.00
34500;BME280;20745;50.882;6.962;2022-11-20T11:34:13;100401.97;;;7.77;100.00
34500;BME280;20745;50.882;6.962;2022-11-20T11:36:40;100387.72;;;7.77;100.00
34500;BME280;20745;50.882;6.962;2022-11-20T11:39:17;100390.56;;;7.75;100.00
34500;BME280;20745;50.882;6.962;2022-11-20T11:41:46;100385.38;;;7.74;100.00
34500;BME280;20745;50.882;6.962;2022-11-20T11:44:19;100371.59;;;7.69;100.00
34500;BME280;20745;50.882;6.962;2022-11-20T11:47:05;100384.38;;;7.67;100.00
34500;BME280;20745;50.882;6.962;2022-11-20T11:49:34;100385.72;;;7.63;100.00
34500;BME280;20745;50.882;6.962;2022-11-20T11:57:05;100366.94;;;7.46;100.00
34500;BME280;20745;50.882;6.962;2022-11-20T11:59:41;100368.28;;;7.34;100.00
34500;BME280;20745;50.882;6.962;2022-11-20T12:02:32;100359.91;;;7.37;100.00
34500;BME280;20745;50.882;6.962;2022-11-20T12:05:00;100361.91;;;7.35;100.00
34500;BME280;20745;50.882;6.962;2022-11-20T12:07:45;100349.31;;;7.36;100.00
34500;BME280;20745;50.882;6.962;2022-11-20T12:12:44;100343.44;;;7.40;100.00
34500;BME280;20745;50.882;6.962;2022-11-20T12:15:16;100334.03;;;7.44;100.00
34500;BME280;20745;50.882;6.962;2022-11-20T12:17:45;100335.88;;;7.36;100.00
34500;BME280;20745;50.882;6.962;2022-11-20T12:20:12;100333.69;;;7.39;100.00
34500;BME280;20745;50.882;6.962;2022-11-20T12:22:48;100329.31;;;7.38;100.00
34500;BME280;20745;50.882;6.962;2022-11-20T12:30:17;100322.09;;;7.47;100.00
34500;BME280;20745;50.882;6.962;2022-11-20T12:35:20;100315.34;;;7.59;100.00
34500;BME280;20745;50.882;6.962;2022-11-20T12:40:28;100307.41;;;7.74;100.00
34500;BME280;20745;50.882;6.962;2022-11-20T12:43:01;100310.41;;;7.79;100.00
34500;BME280;20745;50.882;6.962;2022-11-20T12:46:05;100304.69;;;7.82;100.00
34500;BME280;20745;50.882;6.962;2022-11-20T13:01:25;100283.47;;;7.95;100.00
34500;BME280;20745;50.882;6.962;2022-11-20T13:04:08;100269.16;;;8.02;100.00
34500;BME280;20745;50.882;6.962;2022-11-20T13:06:39;100264.13;;;7.99;100.00
34500;BME280;20745;50.882;6.962;2022-11-20T13:09:12;100261.66;;;7.90;100.00
34500;BME280;20745;50.882;6.962;2022-11-20T13:19:19;100237.94;;;7.93;100.00
34500;BME280;20745;50.882;6.962;2022-11-20T13:21:48;100232.53;;;7.93;100.00
34500;BME280;20745;50.882;6.962;2022-11-20T13:26:46;100230.28;;;8.05;100.00
34500;BME280;20745;50.882;6.962;2022-11-20T13:29:16;100218.84;;;8.11;100.00
34500;BME280;20745;50.882;6.962;2022-11-20T13:31:44;100208.78;;;8.05;100.00
34500;BME280;20745;50.882;6.962;2022-11-20T13:34:12;100218.69;;;8.04;100.00
34500;BME280;20745;50.882;6.962;2022-11-20T13:36:48;100213.38;;;7.96;100.00
34500;BME280;20745;50.882;6.962;2022-11-20T13:39:23;100208.06;;;7.88;100.00
34500;BME280;20745;50.882;6.962;2022-11-20T13:41:57;100208.88;;;7.89;100.00
34500;BME280;20745;50.882;6.962;2022-11-20T13:46:50;100194.78;;;7.87;100.00
34500;BME280;20745;50.882;6.962;2022-11-20T13:51:46;100186.22;;;7.83;100.00
34500;BME280;20745;50.882;6.962;2022-11-20T13:57:05;100180.31;;;7.88;100.00
34500;BME280;20745;50.882;6.962;2022-11-20T14:02:20;100173.13;;;7.80;100.00
34500;BME280;20745;50.882;6.962;2022-11-20T14:04:48;100163.59;;;7.78;100.00
34500;BME280;20745;50.882;6.962;2022-11-20T14:07:16;100156.53;;;7.77;100.00
34500;BME280;20745;50.882;6.962;2022-11-20T14:09:51;100161.91;;;7.77;100.00
34500;BME280;20745;50.882;6.962;2022-11-20T14:12:19;100155.00;;;7.82;100.00
34500;BME280;20745;50.882;6.962;2022-11-20T14:14:50;100156.31;;;7.86;100.00
34500;BME280;20745;50.882;6.962;2022-11-20T14:17:22;100155.44;;;7.86;100.00
34500;BME280;20745;50.882;6.962;2022-11-20T14:19:49;100145.72;;;7.85;100.00
34500;BME280;20745;50.882;6.962;2022-11-20T14:24:44;100132.28;;;7.85;100.00
34500;BME280;20745;50.882;6.962;2022-11-20T14:27:12;100123.88;;;7.88;100.00
34500;BME280;20745;50.882;6.962;2022-11-20T14:29:39;100121.19;;;7.88;100.00